Terminal Aerodrome Forecast
Issued by NWS Wilmington, OH

Current Version | Previous Version | Graphics & Text | Print | Product List | Glossary On
Versions: 1 2 3 4 5 6 7 8 9 10 11 12 13 14 15 16 17 18 19 20 21 22 23 24 25 26 27 28
000
FTUS41 KILN 300857 AAC
TAFILN
TAF AMD
KILN 300857Z 3009/0106 03003KT 4SM BR VCSH OVC002
      TEMPO 3009/3012 1SM BR OVC001
     FM301400 15006KT P6SM -SHRA BKN015 OVC040
     FM301700 15006KT P6SM VCSH BKN035
     FM010000 15003KT P6SM BKN040=

USA.gov is the U.S. government's official web portal to all federal, state and local government web resources and services.